メインページ
METAR-TAF:

METAR-TAF

空港 :

ノヴォシビルスク, ロシア

トルマチョーヴォ空港

緯度: 55-01N, 経度: 082-38E, 海抜: 111m

現時点の気象観測

当レポートは33分前の04:30(UTC)に作成
南西の風 12kt
気温 8°C
湿度 81%
気圧 1008 hPa
視程10km以上
高度3100ftの千切れ雲あり

METAR: UNNT 210430Z 23006MPS 9999 BKN031 08/05 Q1008 R25/290160 R16/290160 NOSIG RMK QFE746/0995

時間: 12:03 (05:03 UTC)

予報

当レポートは3時間3分前の02:00(UTC)に作成
予報は21日の 03時(UTC)から 22日の 03時(UTC)まで有効
南/南西の風 12kt、最大23ktの突風を伴う
視程10km以上
高度1100ftの千切れ雲あり, 積乱雲.
21日の 03時(UTC)から 21日の 12時(UTC)まで一時的に
西の風 17kt、最大27ktの突風を伴う
視程: 3100m
高度500ftの千切れ雲あり
高度1000ftの千切れ雲あり, 積乱雲.
弱いにわか雨
21日の 1200時(UTC)から
南/南西の風 6kt
視程: 4000m
高度2000ftの雲は散在している
21日の 15時(UTC)から 22日の 03時(UTC)まで一時的に
視程: 1500m
高度200ftの雲は散在している

TAF: UNNT 210200Z 2103/2203 21006G12MPS 9999 BKN011CB TEMPO 2103/2112 26009G14MPS 3100 -SHRA BKN005 BKN010CB FM211200 20003MPS 4000 BR SCT020 TEMPO 2115/2203 1500 BR SCT002

4,000以上の空港の気象観測と天気予報(METAR報とTAF報)

利用可能な観測所は地図上に黄色い丸と赤い丸で示す。

丸の上にカーソルを重ねると観測所名を参照できる。

次にクリックすると気象観測と天気予報を参照できる。

マップの切り替え:黒色「×」印の緑ボタンをクリックして拡大、「-」印の緑ボタンをクリックして縮小、緑色の三角印をクリックして隣りの地図に切り替え


METAR-TAF: